Time;durP1;ratioP1;P1;durP2;ratioP2;P2;SDS_P1;SDS_P2;PMS_P1;PMS_P2;Temp;Humidity;BMP_temperature;BMP_pressure;BME280_temperature;BME280_humidity;BME280_pressure;Samples;Min_cycle;Max_cycle;Signal;HPM_P1;HPM_P2
2022/11/27 00:00:42;;;;;;;;;16.33;14.33;;;;;-149.00;100.00;66333.84;5020786;28;45447;-80
2022/11/27 00:03:07;;;;;;;;;17.67;15.33;;;;;-149.00;100.00;66333.84;5021003;28;45622;-81
2022/11/27 00:05:32;;;;;;;;;15.67;14.00;;;;;-149.00;100.00;66333.84;5020607;28;45367;-81
2022/11/27 00:07:58;;;;;;;;;16.00;14.33;;;;;-149.00;100.00;66333.84;5036807;28;48843;-81
2022/11/27 00:10:23;;;;;;;;;18.67;13.33;;;;;-149.00;100.00;66333.84;5020428;28;45253;-81
2022/11/27 00:12:48;;;;;;;;;15.33;15.00;;;;;-149.00;100.00;66333.84;5020856;28;45165;-81
2022/11/27 00:15:14;;;;;;;;;15.00;15.00;;;;;-149.00;100.00;66333.84;5020963;28;45437;-81
2022/11/27 00:17:39;;;;;;;;;16.00;14.67;;;;;-149.00;100.00;66333.84;5018591;28;47199;-81
2022/11/27 00:20:05;;;;;;;;;15.33;13.00;;;;;-149.00;100.00;66333.84;5021055;28;45332;-81
2022/11/27 00:22:30;;;;;;;;;15.67;15.00;;;;;-149.00;100.00;66333.84;5020194;28;45313;-81
2022/11/27 00:24:56;;;;;;;;;19.67;17.67;;;;;-149.00;100.00;66333.84;5035271;28;49803;-81
2022/11/27 00:27:21;;;;;;;;;15.00;13.67;;;;;-149.00;100.00;66333.84;5020130;28;45257;-81
2022/11/27 00:29:46;;;;;;;;;12.00;11.00;;;;;-149.00;100.00;66333.84;5035924;28;46045;-80
2022/11/27 00:32:12;;;;;;;;;12.00;10.67;;;;;-149.00;100.00;66333.84;5018905;28;46627;-81
2022/11/27 00:34:37;;;;;;;;;17.33;14.67;;;;;-149.00;100.00;66333.84;5020336;28;45404;-81
2022/11/27 00:37:03;;;;;;;;;14.67;14.67;;;;;-149.00;100.00;66333.84;5020133;28;46211;-80
2022/11/27 00:39:28;;;;;;;;;13.33;12.00;;;;;-149.00;100.00;66333.84;5020183;28;45383;-81
2022/11/27 00:41:53;;;;;;;;;20.33;17.00;;;;;-149.00;100.00;66333.84;5019389;28;45343;-81
2022/11/27 00:44:19;;;;;;;;;14.00;12.33;;;;;-149.00;100.00;66333.84;5020935;28;45387;-82
2022/11/27 00:46:45;;;;;;;;;12.33;11.00;;;;;-149.00;100.00;66333.84;5019522;28;45741;-82
2022/11/27 00:49:13;;;;;;;;;13.67;12.33;;;;;-149.00;100.00;66333.84;5018412;28;45367;-81
2022/11/27 00:51:39;;;;;;;;;17.00;15.00;;;;;-149.00;100.00;66333.84;5019939;28;45358;-81
2022/11/27 00:54:04;;;;;;;;;17.00;15.67;;;;;-149.00;100.00;66333.84;5021707;28;45281;-81
2022/11/27 00:56:36;;;;;;;;;15.67;15.67;;;;;-149.00;100.00;66333.84;5019876;28;46255;-81
2022/11/27 00:59:03;;;;;;;;;15.67;14.00;;;;;-149.00;100.00;66333.84;5020234;28;45272;-81
2022/11/27 01:01:32;;;;;;;;;17.67;15.33;;;;;-149.00;100.00;66333.84;5019443;28;45337;-81
2022/11/27 01:03:59;;;;;;;;;11.67;11.00;;;;;-149.00;100.00;66333.84;5021189;28;46014;-81
2022/11/27 01:06:26;;;;;;;;;15.33;14.33;;;;;-149.00;100.00;66333.84;5018066;28;48787;-81
2022/11/27 01:08:52;;;;;;;;;16.33;14.67;;;;;-149.00;100.00;66333.84;5019171;28;45422;-81
2022/11/27 01:11:21;;;;;;;;;13.00;11.67;;;;;-149.00;100.00;66333.84;5019513;28;45447;-81
2022/11/27 01:13:47;;;;;;;;;15.67;15.00;;;;;-149.00;100.00;66333.84;5019337;28;45351;-81
2022/11/27 01:16:16;;;;;;;;;12.33;11.67;;;;;-149.00;100.00;66333.84;5019252;28;45354;-81
2022/11/27 01:18:43;;;;;;;;;14.00;14.00;;;;;-149.00;100.00;66333.84;5019219;28;45291;-81
2022/11/27 01:21:10;;;;;;;;;14.33;14.33;;;;;-149.00;100.00;66333.84;5019491;28;45362;-80
2022/11/27 01:23:35;;;;;;;;;12.67;11.33;;;;;-149.00;100.00;66333.84;5019045;28;45402;-81
2022/11/27 01:26:06;;;;;;;;;13.00;13.00;;;;;-149.00;100.00;66333.84;5018937;28;45266;-81
2022/11/27 01:28:32;;;;;;;;;12.33;12.33;;;;;-149.00;100.00;66333.84;5018939;28;45662;-81
2022/11/27 01:30:58;;;;;;;;;14.67;13.33;;;;;-149.00;100.00;66333.84;5018300;28;45284;-81
2022/11/27 01:33:23;;;;;;;;;16.33;13.33;;;;;-149.00;100.00;66333.84;5017704;28;45850;-81
2022/11/27 01:35:56;;;;;;;;;13.33;13.00;;;;;-149.00;100.00;66333.84;5019000;28;45328;-80
2022/11/27 01:38:24;;;;;;;;;19.00;15.33;;;;;-149.00;100.00;66333.84;5018974;28;45311;-81
2022/11/27 01:41:02;;;;;;;;;14.33;12.67;;;;;-149.00;100.00;66333.84;5034557;28;45295;-81
2022/11/27 01:43:48;;;;;;;;;18.00;16.00;;;;;-149.00;100.00;66333.84;5017550;28;46070;-80
2022/11/27 01:46:38;;;;;;;;;13.00;13.00;;;;;-149.00;100.00;66333.84;5018607;28;46105;-81
2022/11/27 01:49:24;;;;;;;;;15.00;15.00;;;;;-149.00;100.00;66333.84;5019047;28;45236;-80
2022/11/27 01:52:07;;;;;;;;;11.33;11.33;;;;;-149.00;100.00;66333.84;5018999;28;45392;-81
2022/11/27 01:54:41;;;;;;;;;14.00;14.00;;;;;-149.00;100.00;66333.84;5019521;28;45397;-80
2022/11/27 01:57:13;;;;;;;;;11.33;11.00;;;;;-149.00;100.00;66333.84;5018706;28;45455;-81
2022/11/27 01:59:39;;;;;;;;;12.67;11.00;;;;;-149.00;100.00;66333.84;5018948;28;45335;-80
2022/11/27 02:02:05;;;;;;;;;11.67;10.67;;;;;-149.00;100.00;66333.84;5018654;28;45455;-81
2022/11/27 02:04:30;;;;;;;;;12.67;12.33;;;;;-149.00;100.00;66333.84;5018749;28;45284;-81
2022/11/27 02:06:58;;;;;;;;;15.67;13.67;;;;;-149.00;100.00;66333.84;5018537;28;45333;-81
2022/11/27 02:09:25;;;;;;;;;13.00;13.00;;;;;-149.00;100.00;66333.84;5018388;28;45390;-80
2022/11/27 02:12:26;;;;;;;;;14.00;12.00;;;;;-149.00;100.00;66333.84;5018770;28;45649;-81
2022/11/27 02:15:15;;;;;;;;;11.33;11.33;;;;;-149.00;100.00;66333.84;5018605;28;45761;-80
2022/11/27 02:18:02;;;;;;;;;12.00;11.00;;;;;-149.00;100.00;66333.84;5004478;28;48350;-81
2022/11/27 02:20:34;;;;;;;;;10.67;9.67;;;;;-149.00;100.00;66333.84;5018747;28;45542;-80
2022/11/27 02:23:51;;;;;;;;;11.33;10.33;;;;;-149.00;100.00;66333.84;5018695;28;45330;-81
2022/11/27 02:26:35;;;;;;;;;12.00;10.33;;;;;-149.00;100.00;66333.84;5006482;28;45482;-81
2022/11/27 02:29:04;;;;;;;;;11.33;10.33;;;;;-149.00;100.00;66333.84;5018257;28;45356;-81
2022/11/27 02:31:45;;;;;;;;;10.00;10.00;;;;;-149.00;100.00;66333.84;5018242;28;45353;-81
2022/11/27 02:34:24;;;;;;;;;14.33;10.67;;;;;-149.00;100.00;66333.84;5015762;28;45495;-81
2022/11/27 02:37:14;;;;;;;;;8.33;8.00;;;;;-149.00;100.00;66333.84;5009203;28;45364;-80
2022/11/27 02:39:50;;;;;;;;;9.00;9.00;;;;;-149.00;100.00;66333.84;5009612;28;46684;-80
2022/11/27 02:42:19;;;;;;;;;12.00;10.67;;;;;-149.00;100.00;66333.84;5021552;28;45647;-80
2022/11/27 02:45:00;;;;;;;;;9.67;8.67;;;;;-149.00;100.00;66333.84;5020269;28;45389;-80
2022/11/27 02:47:27;;;;;;;;;8.67;6.33;;;;;-149.00;100.00;66333.84;5036847;28;47279;-80
2022/11/27 02:49:55;;;;;;;;;8.67;8.67;;;;;-149.00;100.00;66333.84;5036668;28;48423;-81
2022/11/27 02:52:25;;;;;;;;;8.00;7.00;;;;;-149.00;100.00;66333.84;5021506;28;45412;-81
2022/11/27 02:54:53;;;;;;;;;5.67;5.67;;;;;-149.00;100.00;66333.84;5021848;28;45316;-80
2022/11/27 02:57:20;;;;;;;;;9.00;9.00;;;;;-149.00;100.00;66333.84;5037044;28;45948;-81
2022/11/27 02:59:46;;;;;;;;;12.33;10.00;;;;;-149.00;100.00;66333.84;5033414;28;48560;-81
2022/11/27 03:02:21;;;;;;;;;5.33;5.33;;;;;-149.00;100.00;66333.84;5020704;28;45360;-81
2022/11/27 03:04:52;;;;;;;;;11.67;9.00;;;;;-149.00;100.00;66333.84;5036828;28;45432;-80
2022/11/27 03:07:31;;;;;;;;;8.67;6.67;;;;;-149.00;100.00;66333.84;5021045;28;45234;-80
2022/11/27 03:10:02;;;;;;;;;7.00;7.00;;;;;-149.00;100.00;66333.84;5020693;28;46344;-80
2022/11/27 03:12:27;;;;;;;;;9.00;8.67;;;;;-149.00;100.00;66333.84;5007690;28;45313;-81
2022/11/27 03:14:52;;;;;;;;;6.67;6.00;;;;;-149.00;100.00;66333.84;5021318;28;45766;-81
2022/11/27 03:17:24;;;;;;;;;7.00;6.33;;;;;-149.00;100.00;66333.84;5036259;28;47244;-80
2022/11/27 03:19:59;;;;;;;;;7.67;6.00;;;;;-149.00;100.00;66333.84;5021264;28;45356;-80
2022/11/27 03:22:26;;;;;;;;;8.33;8.33;;;;;-149.00;100.00;66333.84;5021580;28;45266;-82
2022/11/27 03:24:52;;;;;;;;;8.00;6.67;;;;;-149.00;100.00;66333.84;5021419;28;45256;-81
2022/11/27 03:27:25;;;;;;;;;7.00;7.00;;;;;-149.00;100.00;66333.84;5020827;28;45327;-81
2022/11/27 03:29:55;;;;;;;;;10.33;8.00;;;;;-149.00;100.00;66333.84;5021274;28;45327;-81
2022/11/27 03:32:20;;;;;;;;;10.33;8.67;;;;;-149.00;100.00;66333.84;5019420;28;45521;-81
2022/11/27 03:34:47;;;;;;;;;9.67;7.00;;;;;-149.00;100.00;66333.84;5020486;28;45254;-81
2022/11/27 03:37:13;;;;;;;;;10.00;7.00;;;;;-149.00;100.00;66333.84;5020855;28;45457;-81
2022/11/27 03:39:39;;;;;;;;;6.00;5.00;;;;;-149.00;100.00;66333.84;5019493;28;47398;-81
2022/11/27 03:42:29;;;;;;;;;4.33;4.33;;;;;-149.00;100.00;66333.84;5019705;28;45333;-82
2022/11/27 03:45:16;;;;;;;;;6.67;6.00;;;;;-149.00;100.00;66333.84;5019778;28;45410;-81
2022/11/27 03:48:05;;;;;;;;;7.67;7.67;;;;;-149.00;100.00;66333.84;5021197;28;45423;-80
2022/11/27 03:51:01;;;;;;;;;7.33;7.33;;;;;-149.00;100.00;66333.84;5006301;28;47167;-81
2022/11/27 03:53:47;;;;;;;;;8.33;8.00;;;;;-149.00;100.00;66333.84;5018363;28;46134;-81
2022/11/27 03:56:37;;;;;;;;;7.67;7.67;;;;;-149.00;100.00;66333.84;5020960;28;45324;-80
2022/11/27 03:59:22;;;;;;;;;9.67;6.67;;;;;-149.00;100.00;66333.84;5019388;28;46509;-79
2022/11/27 04:01:48;;;;;;;;;7.00;7.00;;;;;-149.00;100.00;66333.84;5020544;28;46152;-82
2022/11/27 04:04:13;;;;;;;;;6.00;6.00;;;;;-149.00;100.00;66333.84;5019531;28;46314;-80
2022/11/27 04:06:39;;;;;;;;;9.33;8.67;;;;;-149.00;100.00;66333.84;5019451;28;45349;-80
2022/11/27 04:09:04;;;;;;;;;5.67;5.67;;;;;-149.00;100.00;66333.84;5021670;28;45269;-82
2022/11/27 04:11:29;;;;;;;;;9.33;8.33;;;;;-149.00;100.00;66333.84;5035730;28;50393;-81
2022/11/27 04:13:55;;;;;;;;;6.00;6.00;;;;;-149.00;100.00;66333.84;5019848;28;45640;-81
2022/11/27 04:16:20;;;;;;;;;7.33;5.67;;;;;-149.00;100.00;66333.84;5022111;28;45354;-82
2022/11/27 04:18:46;;;;;;;;;8.00;6.33;;;;;-149.00;100.00;66333.84;5022271;28;45454;-81
2022/11/27 04:21:11;;;;;;;;;7.00;7.00;;;;;-149.00;100.00;66333.84;5022154;28;45530;-81
2022/11/27 04:23:37;;;;;;;;;11.67;8.33;;;;;-149.00;100.00;66333.84;5021010;28;45470;-82
2022/11/27 04:26:03;;;;;;;;;10.00;9.00;;;;;-149.00;100.00;66333.84;5021993;28;45286;-81
2022/11/27 04:28:29;;;;;;;;;8.67;8.00;;;;;-149.00;100.00;66333.84;5021639;28;45463;-80
2022/11/27 04:30:55;;;;;;;;;7.33;7.33;;;;;-149.00;100.00;66333.84;5035295;28;48019;-81
2022/11/27 04:33:21;;;;;;;;;6.67;6.67;;;;;-149.00;100.00;66333.84;5020193;28;45257;-81
2022/11/27 04:35:46;;;;;;;;;8.67;8.00;;;;;-149.00;100.00;66333.84;5020867;28;45369;-81
2022/11/27 04:38:11;;;;;;;;;8.67;7.00;;;;;-149.00;100.00;66333.84;5019871;28;45613;-82
2022/11/27 04:40:37;;;;;;;;;7.33;7.00;;;;;-149.00;100.00;66333.84;5020633;28;46040;-81
2022/11/27 04:43:02;;;;;;;;;7.00;6.67;;;;;-149.00;100.00;66333.84;5019996;28;45344;-80
2022/11/27 04:45:27;;;;;;;;;7.00;7.00;;;;;-149.00;100.00;66333.84;5021055;28;45391;-81
2022/11/27 04:47:53;;;;;;;;;6.00;6.00;;;;;-149.00;100.00;66333.84;5021516;28;45447;-80
2022/11/27 04:50:18;;;;;;;;;7.00;7.00;;;;;-149.00;100.00;66333.84;5019309;28;47373;-80
2022/11/27 04:52:43;;;;;;;;;8.67;8.00;;;;;-149.00;100.00;66333.84;5021201;28;45289;-81
2022/11/27 04:55:09;;;;;;;;;12.00;9.00;;;;;-149.00;100.00;66333.84;5022744;28;45239;-80
2022/11/27 04:57:34;;;;;;;;;7.00;7.00;;;;;-149.00;100.00;66333.84;5020403;28;45313;-80
2022/11/27 05:00:00;;;;;;;;;11.00;10.00;;;;;-149.00;100.00;66333.84;5021507;28;45500;-80
2022/11/27 05:02:25;;;;;;;;;7.33;7.33;;;;;-149.00;100.00;66333.84;5019157;28;45450;-80
2022/11/27 05:04:51;;;;;;;;;7.00;7.00;;;;;-149.00;100.00;66333.84;5019809;28;45288;-81
2022/11/27 05:07:16;;;;;;;;;8.33;7.33;;;;;-149.00;100.00;66333.84;5020521;28;45300;-80
2022/11/27 05:09:41;;;;;;;;;8.33;7.00;;;;;-149.00;100.00;66333.84;5021401;28;46354;-80
2022/11/27 05:12:07;;;;;;;;;7.00;7.00;;;;;-149.00;100.00;66333.84;5034731;28;45292;-80
2022/11/27 05:14:32;;;;;;;;;7.00;6.33;;;;;-149.00;100.00;66333.84;5018867;28;45290;-79
2022/11/27 05:16:58;;;;;;;;;9.00;8.00;;;;;-149.00;100.00;66333.84;5034951;28;46361;-80
2022/11/27 05:19:26;;;;;;;;;6.00;5.00;;;;;-149.00;100.00;66333.84;5019704;28;45867;-80
2022/11/27 05:21:52;;;;;;;;;6.00;6.00;;;;;-149.00;100.00;66333.84;5020597;28;45379;-80
2022/11/27 05:24:20;;;;;;;;;6.67;6.67;;;;;-149.00;100.00;66333.84;5018262;28;45446;-81
2022/11/27 05:26:46;;;;;;;;;9.33;9.33;;;;;-149.00;100.00;66333.84;5019693;28;45371;-81
2022/11/27 05:29:12;;;;;;;;;5.00;5.00;;;;;-149.00;100.00;66333.84;5020657;28;46299;-80
2022/11/27 05:31:38;;;;;;;;;7.00;7.00;;;;;-149.00;100.00;66333.84;5019648;28;45300;-80
2022/11/27 05:34:04;;;;;;;;;9.00;9.00;;;;;-149.00;100.00;66333.84;5019364;28;45419;-80
2022/11/27 05:36:30;;;;;;;;;9.00;7.67;;;;;-149.00;100.00;66333.84;5019239;28;45500;-80
2022/11/27 05:38:56;;;;;;;;;8.00;7.00;;;;;-149.00;100.00;66333.84;5019216;28;47665;-80
2022/11/27 05:41:21;;;;;;;;;6.67;6.67;;;;;-149.00;100.00;66333.84;5019857;28;45380;-80
2022/11/27 05:43:47;;;;;;;;;7.00;7.00;;;;;-149.00;100.00;66333.84;5020597;28;45483;-81
2022/11/27 05:46:14;;;;;;;;;8.67;7.00;;;;;-149.00;100.00;66333.84;5020177;28;45404;-80
2022/11/27 05:48:40;;;;;;;;;7.00;6.00;;;;;-149.00;100.00;66333.84;5019217;28;45296;-81
2022/11/27 05:51:05;;;;;;;;;10.67;9.00;;;;;-149.00;100.00;66333.84;5019910;28;45301;-80
2022/11/27 05:53:32;;;;;;;;;9.00;9.00;;;;;-149.00;100.00;66333.84;5018488;28;45389;-81
2022/11/27 05:56:06;;;;;;;;;7.67;7.00;;;;;-149.00;100.00;66333.84;5019443;28;45518;-80
2022/11/27 05:58:32;;;;;;;;;8.33;8.33;;;;;-149.00;100.00;66333.84;5017462;28;48078;-81
2022/11/27 06:00:57;;;;;;;;;7.33;7.33;;;;;-149.00;100.00;66333.84;5019015;28;45241;-81
2022/11/27 06:03:23;;;;;;;;;7.67;7.67;;;;;-149.00;100.00;66333.84;5017626;28;45262;-81
2022/11/27 06:05:49;;;;;;;;;7.33;6.00;;;;;-149.00;100.00;66333.84;5034350;28;45958;-80
2022/11/27 06:08:15;;;;;;;;;9.33;9.00;;;;;-149.00;100.00;66333.84;5018722;28;45433;-81
2022/11/27 06:10:40;;;;;;;;;8.00;8.00;;;;;-149.00;100.00;66333.84;5018973;28;45335;-79
2022/11/27 06:13:06;;;;;;;;;6.00;6.00;;;;;-149.00;100.00;66333.84;5019036;28;45333;-80
2022/11/27 06:15:31;;;;;;;;;8.67;7.33;;;;;-149.00;100.00;66333.84;5018887;28;45341;-80
2022/11/27 06:18:00;;;;;;;;;9.00;9.00;;;;;-149.00;100.00;66333.84;5022454;28;46443;-80
2022/11/27 06:20:25;;;;;;;;;8.00;7.00;;;;;-149.00;100.00;66333.84;5022327;28;45336;-80
2022/11/27 06:22:50;;;;;;;;;9.33;7.67;;;;;-149.00;100.00;66333.84;5021255;28;45443;-81
2022/11/27 06:25:16;;;;;;;;;11.33;8.67;;;;;-149.00;100.00;66333.84;5035614;28;54837;-81
2022/11/27 06:27:41;;;;;;;;;8.67;8.33;;;;;-149.00;100.00;66333.84;5022547;28;45357;-81
2022/11/27 06:30:07;;;;;;;;;8.00;7.00;;;;;-149.00;100.00;66333.84;5022742;28;45304;-82
2022/11/27 06:32:33;;;;;;;;;7.33;7.33;;;;;-149.00;100.00;66333.84;5034011;28;45303;-80
2022/11/27 06:34:58;;;;;;;;;7.67;7.67;;;;;-149.00;100.00;66333.84;5011716;28;45333;-80
2022/11/27 06:37:24;;;;;;;;;6.00;6.00;;;;;-149.00;100.00;66333.84;5019698;28;47516;-79
2022/11/27 06:39:50;;;;;;;;;5.67;5.67;;;;;-149.00;100.00;66333.84;5021069;28;45401;-81
2022/11/27 06:42:15;;;;;;;;;9.33;8.00;;;;;-149.00;100.00;66333.84;5036962;28;45510;-82
2022/11/27 06:44:41;;;;;;;;;9.33;9.33;;;;;-149.00;100.00;66333.84;5021954;28;45376;-81
2022/11/27 06:47:06;;;;;;;;;4.33;3.67;;;;;-149.00;100.00;66333.84;5021737;28;45773;-82
2022/11/27 06:49:32;;;;;;;;;7.33;7.33;;;;;-149.00;100.00;66333.84;5020305;28;46237;-82
2022/11/27 06:51:57;;;;;;;;;8.33;7.00;;;;;-149.00;100.00;66333.84;5035670;28;45809;-83
2022/11/27 06:54:22;;;;;;;;;8.33;7.67;;;;;-149.00;100.00;66333.84;5021812;28;45526;-83
2022/11/27 06:56:49;;;;;;;;;6.67;6.67;;;;;-149.00;100.00;66333.84;5021143;28;47245;-84
2022/11/27 06:59:15;;;;;;;;;8.67;8.67;;;;;-149.00;100.00;66333.84;5020964;28;45261;-84
2022/11/27 07:01:41;;;;;;;;;7.67;7.67;;;;;-149.00;100.00;66333.84;5021510;28;45427;-84
2022/11/27 07:04:09;;;;;;;;;6.33;6.33;;;;;-149.00;100.00;66333.84;5021068;28;46342;-83
2022/11/27 07:06:35;;;;;;;;;9.00;9.00;;;;;-149.00;100.00;66333.84;5021544;28;45703;-84
2022/11/27 07:09:00;;;;;;;;;11.00;8.67;;;;;-149.00;100.00;66333.84;5036720;28;45445;-84
2022/11/27 07:11:28;;;;;;;;;9.33;9.33;;;;;-149.00;100.00;66333.84;5021702;28;45330;-85
2022/11/27 07:13:56;;;;;;;;;8.00;8.00;;;;;-149.00;100.00;66333.84;5034105;28;46206;-85
2022/11/27 07:16:22;;;;;;;;;7.67;7.67;;;;;-149.00;100.00;66333.84;5016599;28;46668;-84
2022/11/27 07:18:50;;;;;;;;;8.00;8.00;;;;;-149.00;100.00;66333.84;5020188;28;45373;-84
2022/11/27 07:21:16;;;;;;;;;9.00;9.00;;;;;-149.00;100.00;66333.84;5021136;28;45383;-84
2022/11/27 07:23:41;;;;;;;;;9.00;8.67;;;;;-149.00;100.00;66333.84;5036523;28;46363;-85
2022/11/27 07:26:09;;;;;;;;;12.00;8.00;;;;;-149.00;100.00;66333.84;5028532;28;47493;-83
2022/11/27 07:28:35;;;;;;;;;8.00;6.33;;;;;-149.00;100.00;66333.84;5011878;28;45310;-85
2022/11/27 07:31:01;;;;;;;;;9.67;8.67;;;;;-149.00;100.00;66333.84;5020696;28;45896;-84
2022/11/27 07:33:26;;;;;;;;;11.67;9.00;;;;;-149.00;100.00;66333.84;5021321;28;45230;-83
2022/11/27 07:36:07;;;;;;;;;5.33;5.33;;;;;-149.00;100.00;66333.84;5021230;28;45238;-84
2022/11/27 07:38:33;;;;;;;;;11.33;10.33;;;;;-149.00;100.00;66333.84;5008220;28;45245;-84
2022/11/27 07:41:00;;;;;;;;;6.33;6.33;;;;;-149.00;100.00;66333.84;5021112;28;45533;-83
2022/11/27 07:43:26;;;;;;;;;11.67;10.33;;;;;-149.00;100.00;66333.84;5021396;28;45347;-84
2022/11/27 07:45:51;;;;;;;;;9.33;9.33;;;;;-149.00;100.00;66333.84;5035258;28;47513;-85
2022/11/27 07:48:16;;;;;;;;;7.33;6.67;;;;;-149.00;100.00;66333.84;5019797;28;45555;-85
2022/11/27 07:50:42;;;;;;;;;9.00;8.00;;;;;-149.00;100.00;66333.84;5036946;28;45759;-86
2022/11/27 07:53:07;;;;;;;;;7.33;7.33;;;;;-149.00;100.00;66333.84;5021288;28;45495;-87
2022/11/27 07:55:32;;;;;;;;;7.67;7.00;;;;;-149.00;100.00;66333.84;5021808;28;46314;-85
2022/11/27 07:57:58;;;;;;;;;8.00;8.00;;;;;-149.00;100.00;66333.84;5016357;28;45316;-85
2022/11/27 08:00:23;;;;;;;;;11.00;7.00;;;;;-149.00;100.00;66333.84;5019193;28;45655;-84
2022/11/27 08:02:48;;;;;;;;;10.33;8.00;;;;;-149.00;100.00;66333.84;5019603;28;45412;-85
2022/11/27 08:05:14;;;;;;;;;12.00;12.00;;;;;-149.00;100.00;66333.84;5019274;28;47196;-84
2022/11/27 08:07:40;;;;;;;;;6.00;6.00;;;;;-149.00;100.00;66333.84;5020625;28;45622;-86
2022/11/27 08:10:06;;;;;;;;;8.67;7.67;;;;;-149.00;100.00;66333.84;5020515;28;45347;-83
2022/11/27 08:12:31;;;;;;;;;11.00;9.67;;;;;-149.00;100.00;66333.84;5020552;28;45588;-84
2022/11/27 08:14:56;;;;;;;;;8.00;8.00;;;;;-149.00;100.00;66333.84;5036240;28;48715;-89
2022/11/27 08:17:22;;;;;;;;;8.67;8.67;;;;;-149.00;100.00;66333.84;5021040;28;45341;-86
2022/11/27 08:19:50;;;;;;;;;9.00;7.00;;;;;-149.00;100.00;66333.84;5021543;28;45304;-85
2022/11/27 08:22:18;;;;;;;;;9.67;8.33;;;;;-149.00;100.00;66333.84;5015879;28;46039;-86
2022/11/27 08:24:44;;;;;;;;;9.67;9.00;;;;;-149.00;100.00;66333.84;5010841;28;46388;-88
2022/11/27 08:27:10;;;;;;;;;8.00;8.00;;;;;-149.00;100.00;66333.84;5021359;28;45285;-89
2022/11/27 08:29:36;;;;;;;;;11.00;9.00;;;;;-149.00;100.00;66333.84;5022044;28;45455;-87
2022/11/27 08:32:01;;;;;;;;;10.00;10.00;;;;;-149.00;100.00;66333.84;5021817;28;45373;-86
2022/11/27 08:34:27;;;;;;;;;6.00;6.00;;;;;-149.00;100.00;66333.84;5014406;28;45639;-88
2022/11/27 08:36:52;;;;;;;;;12.33;9.33;;;;;-149.00;100.00;66333.84;5024878;28;45344;-88
2022/11/27 08:39:17;;;;;;;;;9.67;8.67;;;;;-149.00;100.00;66333.84;5033954;28;46754;-91
2022/11/27 08:41:43;;;;;;;;;10.00;8.67;;;;;-149.00;100.00;66333.84;5015250;28;46176;-85
2022/11/27 08:44:08;;;;;;;;;7.00;6.33;;;;;-149.00;100.00;66333.84;5019118;28;47945;-87
2022/11/27 08:46:39;;;;;;;;;9.33;7.67;;;;;-149.00;100.00;66333.84;5035547;28;45872;-86
2022/11/27 08:49:05;;;;;;;;;11.00;9.00;;;;;-149.00;100.00;66333.84;5018852;28;45335;-85
2022/11/27 08:51:30;;;;;;;;;8.67;8.67;;;;;-149.00;100.00;66333.84;5020147;28;46060;-88
2022/11/27 08:53:55;;;;;;;;;8.67;8.67;;;;;-149.00;100.00;66333.84;5026084;28;47207;-88
2022/11/27 08:56:24;;;;;;;;;8.33;7.00;;;;;-149.00;100.00;66333.84;5020393;28;45308;-87
2022/11/27 08:58:49;;;;;;;;;8.00;6.33;;;;;-149.00;100.00;66333.84;5019133;28;45243;-87
2022/11/27 09:01:19;;;;;;;;;9.00;7.33;;;;;-149.00;100.00;66333.84;5018872;28;46443;-88
2022/11/27 09:03:45;;;;;;;;;11.00;10.00;;;;;-149.00;100.00;66333.84;5019715;28;47265;-91
2022/11/27 09:06:14;;;;;;;;;8.67;7.33;;;;;-149.00;100.00;66333.84;5021540;28;45561;-86
2022/11/27 09:08:40;;;;;;;;;9.00;8.67;;;;;-149.00;100.00;66333.84;5022674;28;45395;-89
2022/11/27 09:11:06;;;;;;;;;5.33;5.00;;;;;-149.00;100.00;66333.84;5021615;28;45411;-83
2022/11/27 09:13:35;;;;;;;;;6.00;5.00;;;;;-149.00;100.00;66333.84;5021608;28;47305;-89
2022/11/27 09:16:19;;;;;;;;;6.33;6.33;;;;;-149.00;100.00;66333.84;5019737;28;45311;-85
2022/11/27 09:18:46;;;;;;;;;11.00;9.00;;;;;-149.00;100.00;66333.84;5022613;28;45421;-86
2022/11/27 09:21:15;;;;;;;;;7.33;7.33;;;;;-149.00;100.00;66333.84;5032796;28;46208;-87
2022/11/27 09:23:41;;;;;;;;;10.67;9.33;;;;;-149.00;100.00;66333.84;5021028;28;46375;-87
2022/11/27 09:26:15;;;;;;;;;8.33;8.33;;;;;-149.00;100.00;66333.84;5022629;28;45344;-86
2022/11/27 09:28:42;;;;;;;;;10.67;9.00;;;;;-149.00;100.00;66333.84;5022197;28;45166;-84
2022/11/27 09:31:10;;;;;;;;;9.00;8.00;;;;;-149.00;100.00;66333.84;5018055;28;45874;-88
2022/11/27 09:33:49;;;;;;;;;8.67;7.33;;;;;-149.00;100.00;66333.84;5023432;28;47255;-85
2022/11/27 09:44:35;;;;;;;;;;;;;;;;;;;;;
2022/11/27 09:47:28;;;;;;;;;11.00;11.00;;;;;-149.00;100.00;66333.84;4955835;28;75181;-83
2022/11/27 10:00:44;;;;;;;;;9.33;8.67;;;;;-149.00;100.00;66333.84;4872669;28;45544;-79
2022/11/27 10:03:13;;;;;;;;;10.00;10.00;;;;;-149.00;100.00;66333.84;4992892;28;45614;-88
2022/11/27 10:05:52;;;;;;;;;10.67;10.00;;;;;-149.00;100.00;66333.84;5009715;28;45368;-82
2022/11/27 10:08:44;;;;;;;;;11.00;8.67;;;;;-149.00;100.00;66333.84;5015271;28;45462;-82
2022/11/27 10:11:27;;;;;;;;;9.67;9.67;;;;;-149.00;100.00;66333.84;5031816;28;47396;-84
2022/11/27 10:14:19;;;;;;;;;11.00;8.00;;;;;-149.00;100.00;66333.84;5031663;28;45526;-82
2022/11/27 10:17:15;;;;;;;;;9.00;9.00;;;;;-149.00;100.00;66333.84;5016554;28;45256;-82
2022/11/27 10:20:16;;;;;;;;;8.00;8.00;;;;;-149.00;100.00;66333.84;5018988;28;45501;-78
2022/11/27 10:22:58;;;;;;;;;10.67;9.33;;;;;-149.00;100.00;66333.84;5019793;28;45755;-84
2022/11/27 10:25:32;;;;;;;;;7.33;6.00;;;;;-149.00;100.00;66333.84;5021579;28;45356;-85
2022/11/27 10:28:42;;;;;;;;;8.00;7.33;;;;;-149.00;100.00;66333.84;5019434;28;45653;-84
2022/11/27 10:31:17;;;;;;;;;9.67;9.67;;;;;-149.00;100.00;66333.84;5019970;28;46628;-87
2022/11/27 10:33:50;;;;;;;;;10.33;10.00;;;;;-149.00;100.00;66333.84;5018875;28;46561;-90
2022/11/27 10:36:47;;;;;;;;;10.33;7.33;;;;;-149.00;100.00;66333.84;5018135;28;45194;-90
2022/11/27 10:39:21;;;;;;;;;11.00;11.00;;;;;-149.00;100.00;66333.84;5013507;28;45218;-88
2022/11/27 10:42:19;;;;;;;;;10.00;10.00;;;;;-149.00;100.00;66333.84;5018661;28;46100;-86
2022/11/27 10:44:49;;;;;;;;;11.00;9.00;;;;;-149.00;100.00;66333.84;5021610;28;45747;-85
2022/11/27 10:47:17;;;;;;;;;11.67;11.33;;;;;-149.00;100.00;66333.84;5038611;28;45275;-87
2022/11/27 10:49:43;;;;;;;;;12.67;11.67;;;;;-149.00;100.00;66333.84;5034624;28;45294;-86
2022/11/27 10:52:15;;;;;;;;;10.00;9.00;;;;;-149.00;100.00;66333.84;5021772;28;45430;-84
2022/11/27 10:54:42;;;;;;;;;9.00;9.00;;;;;-149.00;100.00;66333.84;5015971;28;46655;-83
2022/11/27 10:57:28;;;;;;;;;10.33;10.33;;;;;-149.00;100.00;66333.84;5017324;28;45338;-79
2022/11/27 11:00:10;;;;;;;;;9.33;8.33;;;;;-149.00;100.00;66333.84;5018404;28;45573;-80
2022/11/27 11:02:38;;;;;;;;;11.67;10.67;;;;;-149.00;100.00;66333.84;5012075;28;45317;-80
2022/11/27 11:05:21;;;;;;;;;12.33;11.67;;;;;-149.00;100.00;66333.84;5036873;28;47259;-81
2022/11/27 11:07:59;;;;;;;;;8.67;8.00;;;;;-149.00;100.00;66333.84;5021563;28;45280;-80
2022/11/27 11:10:35;;;;;;;;;10.00;10.00;;;;;-149.00;100.00;66333.84;5019927;28;45828;-81
2022/11/27 11:13:15;;;;;;;;;10.33;10.33;;;;;-149.00;100.00;66333.84;5037158;28;46474;-79
2022/11/27 11:15:50;;;;;;;;;10.33;10.33;;;;;-149.00;100.00;66333.84;5021998;28;46334;-80
2022/11/27 11:18:20;;;;;;;;;13.00;13.00;;;;;-149.00;100.00;66333.84;5020197;28;45969;-82
2022/11/27 11:20:48;;;;;;;;;16.67;12.67;;;;;-149.00;100.00;66333.84;5020113;28;45378;-80
2022/11/27 11:23:51;;;;;;;;;10.00;9.00;;;;;-149.00;100.00;66333.84;5021062;28;45278;-80
2022/11/27 11:26:20;;;;;;;;;12.00;12.00;;;;;-149.00;100.00;66333.84;4989935;28;47502;-82
2022/11/27 11:28:50;;;;;;;;;14.33;11.33;;;;;-149.00;100.00;66333.84;5021580;28;45178;-81
2022/11/27 11:31:19;;;;;;;;;12.33;12.33;;;;;-149.00;100.00;66333.84;5019496;28;45338;-80
2022/11/27 11:33:56;;;;;;;;;12.67;11.67;;;;;-149.00;100.00;66333.84;5037486;28;46592;-82
2022/11/27 11:36:22;;;;;;;;;12.00;11.33;;;;;-149.00;100.00;66333.84;5037360;28;47175;-84